sensor_id;sensor_type;location;lat;lon;timestamp;P1;durP1;ratioP1;P2;durP2;ratioP2
27495;SDS011;14929;51.336;9.416;2022-08-19T00:00:38;6.65;;;6.05;;
27495;SDS011;14929;51.336;9.416;2022-08-19T00:03:06;6.68;;;6.07;;
27495;SDS011;14929;51.336;9.416;2022-08-19T00:05:33;6.15;;;5.65;;
27495;SDS011;14929;51.336;9.416;2022-08-19T00:08:01;7.10;;;6.32;;
27495;SDS011;14929;51.336;9.416;2022-08-19T00:10:30;7.10;;;6.13;;
27495;SDS011;14929;51.336;9.416;2022-08-19T00:13:00;6.28;;;5.70;;
27495;SDS011;14929;51.336;9.416;2022-08-19T00:15:29;6.63;;;6.03;;
27495;SDS011;14929;51.336;9.416;2022-08-19T00:17:57;6.35;;;5.85;;
27495;SDS011;14929;51.336;9.416;2022-08-19T00:20:25;6.22;;;5.70;;
27495;SDS011;14929;51.336;9.416;2022-08-19T00:22:53;7.45;;;6.75;;
27495;SDS011;14929;51.336;9.416;2022-08-19T00:25:20;6.95;;;6.35;;
27495;SDS011;14929;51.336;9.416;2022-08-19T00:27:48;6.10;;;5.55;;
27495;SDS011;14929;51.336;9.416;2022-08-19T00:30:17;5.85;;;5.35;;
27495;SDS011;14929;51.336;9.416;2022-08-19T00:32:44;6.60;;;5.90;;
27495;SDS011;14929;51.336;9.416;2022-08-19T00:35:12;6.47;;;5.88;;
27495;SDS011;14929;51.336;9.416;2022-08-19T00:37:40;6.47;;;5.60;;
27495;SDS011;14929;51.336;9.416;2022-08-19T00:40:09;6.80;;;6.13;;
27495;SDS011;14929;51.336;9.416;2022-08-19T00:42:37;6.63;;;5.93;;
27495;SDS011;14929;51.336;9.416;2022-08-19T00:45:09;6.53;;;5.82;;
27495;SDS011;14929;51.336;9.416;2022-08-19T00:47:41;6.47;;;5.97;;
27495;SDS011;14929;51.336;9.416;2022-08-19T00:50:09;8.48;;;5.55;;
27495;SDS011;14929;51.336;9.416;2022-08-19T00:52:38;7.13;;;6.53;;
27495;SDS011;14929;51.336;9.416;2022-08-19T00:55:10;6.93;;;4.90;;
27495;SDS011;14929;51.336;9.416;2022-08-19T00:57:44;6.38;;;5.85;;
27495;SDS011;14929;51.336;9.416;2022-08-19T01:00:20;6.07;;;5.45;;
27495;SDS011;14929;51.336;9.416;2022-08-19T01:02:51;6.57;;;5.97;;
27495;SDS011;14929;51.336;9.416;2022-08-19T01:05:20;6.53;;;5.63;;
27495;SDS011;14929;51.336;9.416;2022-08-19T01:07:50;5.55;;;5.05;;
27495;SDS011;14929;51.336;9.416;2022-08-19T01:10:19;5.13;;;4.72;;
27495;SDS011;14929;51.336;9.416;2022-08-19T01:12:49;6.40;;;5.80;;
27495;SDS011;14929;51.336;9.416;2022-08-19T01:15:19;5.63;;;5.15;;
27495;SDS011;14929;51.336;9.416;2022-08-19T01:17:51;5.15;;;4.75;;
27495;SDS011;14929;51.336;9.416;2022-08-19T01:20:21;6.07;;;5.35;;
27495;SDS011;14929;51.336;9.416;2022-08-19T01:22:51;6.72;;;6.18;;
27495;SDS011;14929;51.336;9.416;2022-08-19T01:25:21;6.38;;;5.13;;
27495;SDS011;14929;51.336;9.416;2022-08-19T01:27:53;5.50;;;5.00;;
27495;SDS011;14929;51.336;9.416;2022-08-19T01:30:24;5.85;;;5.13;;
27495;SDS011;14929;51.336;9.416;2022-08-19T01:32:56;5.55;;;5.15;;
27495;SDS011;14929;51.336;9.416;2022-08-19T01:35:25;6.35;;;5.75;;
27495;SDS011;14929;51.336;9.416;2022-08-19T01:37:57;6.82;;;6.13;;
27495;SDS011;14929;51.336;9.416;2022-08-19T01:40:28;7.07;;;6.47;;
27495;SDS011;14929;51.336;9.416;2022-08-19T01:42:58;5.30;;;4.80;;
27495;SDS011;14929;51.336;9.416;2022-08-19T01:45:27;5.93;;;5.43;;
27495;SDS011;14929;51.336;9.416;2022-08-19T01:47:56;6.55;;;5.85;;
27495;SDS011;14929;51.336;9.416;2022-08-19T01:50:24;5.22;;;4.82;;
27495;SDS011;14929;51.336;9.416;2022-08-19T01:52:52;5.88;;;5.38;;
27495;SDS011;14929;51.336;9.416;2022-08-19T01:55:21;6.10;;;5.60;;
27495;SDS011;14929;51.336;9.416;2022-08-19T01:57:50;6.00;;;5.30;;
27495;SDS011;14929;51.336;9.416;2022-08-19T02:00:21;7.90;;;6.05;;
27495;SDS011;14929;51.336;9.416;2022-08-19T02:02:51;5.97;;;5.47;;
27495;SDS011;14929;51.336;9.416;2022-08-19T02:05:19;6.35;;;5.75;;
27495;SDS011;14929;51.336;9.416;2022-08-19T02:07:47;5.68;;;5.07;;
27495;SDS011;14929;51.336;9.416;2022-08-19T02:10:16;6.63;;;5.63;;
27495;SDS011;14929;51.336;9.416;2022-08-19T02:12:48;6.72;;;6.13;;
27495;SDS011;14929;51.336;9.416;2022-08-19T02:15:16;6.05;;;5.45;;
27495;SDS011;14929;51.336;9.416;2022-08-19T02:17:45;6.20;;;5.60;;
27495;SDS011;14929;51.336;9.416;2022-08-19T02:20:13;5.47;;;4.97;;
27495;SDS011;14929;51.336;9.416;2022-08-19T02:22:42;5.47;;;5.05;;
27495;SDS011;14929;51.336;9.416;2022-08-19T02:25:10;5.50;;;5.03;;
27495;SDS011;14929;51.336;9.416;2022-08-19T02:27:38;5.85;;;5.30;;
27495;SDS011;14929;51.336;9.416;2022-08-19T02:30:11;5.57;;;5.07;;
27495;SDS011;14929;51.336;9.416;2022-08-19T02:32:41;6.25;;;5.57;;
27495;SDS011;14929;51.336;9.416;2022-08-19T02:35:09;6.95;;;6.25;;
27495;SDS011;14929;51.336;9.416;2022-08-19T02:37:38;6.97;;;6.38;;
27495;SDS011;14929;51.336;9.416;2022-08-19T02:40:23;5.30;;;4.80;;
27495;SDS011;14929;51.336;9.416;2022-08-19T02:42:51;5.22;;;4.80;;
27495;SDS011;14929;51.336;9.416;2022-08-19T02:45:20;6.65;;;5.97;;
27495;SDS011;14929;51.336;9.416;2022-08-19T02:47:48;5.13;;;4.70;;
27495;SDS011;14929;51.336;9.416;2022-08-19T02:50:15;5.30;;;4.80;;
27495;SDS011;14929;51.336;9.416;2022-08-19T02:52:43;5.18;;;4.68;;
27495;SDS011;14929;51.336;9.416;2022-08-19T02:55:11;6.13;;;5.25;;
27495;SDS011;14929;51.336;9.416;2022-08-19T02:57:38;6.25;;;4.95;;
27495;SDS011;14929;51.336;9.416;2022-08-19T03:00:07;6.05;;;5.30;;
27495;SDS011;14929;51.336;9.416;2022-08-19T03:02:39;5.82;;;5.32;;
27495;SDS011;14929;51.336;9.416;2022-08-19T03:05:07;5.70;;;5.30;;
27495;SDS011;14929;51.336;9.416;2022-08-19T03:07:36;5.40;;;4.90;;
27495;SDS011;14929;51.336;9.416;2022-08-19T03:10:04;5.18;;;4.53;;
27495;SDS011;14929;51.336;9.416;2022-08-19T03:12:34;5.18;;;4.68;;
27495;SDS011;14929;51.336;9.416;2022-08-19T03:15:04;7.13;;;5.50;;
27495;SDS011;14929;51.336;9.416;2022-08-19T03:17:33;5.20;;;4.80;;
27495;SDS011;14929;51.336;9.416;2022-08-19T03:20:03;5.47;;;5.07;;
27495;SDS011;14929;51.336;9.416;2022-08-19T03:22:32;7.32;;;4.60;;
27495;SDS011;14929;51.336;9.416;2022-08-19T03:24:59;5.22;;;4.70;;
27495;SDS011;14929;51.336;9.416;2022-08-19T03:27:27;5.15;;;4.60;;
27495;SDS011;14929;51.336;9.416;2022-08-19T03:29:55;4.93;;;4.43;;
27495;SDS011;14929;51.336;9.416;2022-08-19T03:32:22;4.70;;;4.30;;
27495;SDS011;14929;51.336;9.416;2022-08-19T03:34:50;4.97;;;4.53;;
27495;SDS011;14929;51.336;9.416;2022-08-19T03:37:19;5.05;;;4.60;;
27495;SDS011;14929;51.336;9.416;2022-08-19T03:39:47;4.90;;;4.50;;
27495;SDS011;14929;51.336;9.416;2022-08-19T03:42:14;5.07;;;4.43;;
27495;SDS011;14929;51.336;9.416;2022-08-19T03:44:42;5.45;;;4.45;;
27495;SDS011;14929;51.336;9.416;2022-08-19T03:47:10;4.82;;;4.40;;
27495;SDS011;14929;51.336;9.416;2022-08-19T03:49:41;6.40;;;5.20;;
27495;SDS011;14929;51.336;9.416;2022-08-19T03:52:08;5.28;;;4.78;;
27495;SDS011;14929;51.336;9.416;2022-08-19T03:54:37;4.65;;;4.20;;
27495;SDS011;14929;51.336;9.416;2022-08-19T03:57:06;4.93;;;4.53;;
27495;SDS011;14929;51.336;9.416;2022-08-19T03:59:35;4.80;;;4.35;;
27495;SDS011;14929;51.336;9.416;2022-08-19T04:02:06;5.03;;;4.53;;
27495;SDS011;14929;51.336;9.416;2022-08-19T04:04:35;5.88;;;4.82;;
27495;SDS011;14929;51.336;9.416;2022-08-19T04:07:04;5.43;;;4.93;;
27495;SDS011;14929;51.336;9.416;2022-08-19T04:09:33;9.02;;;5.18;;
27495;SDS011;14929;51.336;9.416;2022-08-19T04:12:03;5.30;;;4.35;;
27495;SDS011;14929;51.336;9.416;2022-08-19T04:14:32;5.55;;;4.43;;
27495;SDS011;14929;51.336;9.416;2022-08-19T04:17:00;5.72;;;4.70;;
27495;SDS011;14929;51.336;9.416;2022-08-19T04:19:30;4.38;;;3.97;;
27495;SDS011;14929;51.336;9.416;2022-08-19T04:21:58;4.35;;;3.95;;
27495;SDS011;14929;51.336;9.416;2022-08-19T04:24:26;6.78;;;4.65;;
27495;SDS011;14929;51.336;9.416;2022-08-19T04:26:54;5.53;;;4.03;;
27495;SDS011;14929;51.336;9.416;2022-08-19T04:29:23;4.50;;;3.95;;
27495;SDS011;14929;51.336;9.416;2022-08-19T04:31:52;4.15;;;3.75;;
27495;SDS011;14929;51.336;9.416;2022-08-19T04:34:21;4.15;;;3.75;;
27495;SDS011;14929;51.336;9.416;2022-08-19T04:36:51;3.65;;;3.35;;
27495;SDS011;14929;51.336;9.416;2022-08-19T04:39:25;4.10;;;3.78;;
27495;SDS011;14929;51.336;9.416;2022-08-19T04:42:09;5.32;;;3.78;;
27495;SDS011;14929;51.336;9.416;2022-08-19T04:44:57;3.70;;;3.40;;
27495;SDS011;14929;51.336;9.416;2022-08-19T04:47:25;3.83;;;3.47;;
27495;SDS011;14929;51.336;9.416;2022-08-19T04:49:53;3.80;;;3.50;;
27495;SDS011;14929;51.336;9.416;2022-08-19T04:52:21;5.03;;;3.42;;
27495;SDS011;14929;51.336;9.416;2022-08-19T04:54:48;3.80;;;3.50;;
27495;SDS011;14929;51.336;9.416;2022-08-19T04:57:16;3.45;;;3.15;;
27495;SDS011;14929;51.336;9.416;2022-08-19T04:59:43;4.03;;;3.63;;
27495;SDS011;14929;51.336;9.416;2022-08-19T05:02:12;3.35;;;3.00;;
27495;SDS011;14929;51.336;9.416;2022-08-19T05:04:40;3.25;;;3.00;;
27495;SDS011;14929;51.336;9.416;2022-08-19T05:07:07;4.28;;;3.10;;
27495;SDS011;14929;51.336;9.416;2022-08-19T05:09:35;5.47;;;3.30;;
27495;SDS011;14929;51.336;9.416;2022-08-19T05:12:03;3.75;;;3.25;;
27495;SDS011;14929;51.336;9.416;2022-08-19T05:14:31;3.25;;;2.95;;
27495;SDS011;14929;51.336;9.416;2022-08-19T05:17:00;2.85;;;2.58;;
27495;SDS011;14929;51.336;9.416;2022-08-19T05:19:29;3.50;;;3.20;;
27495;SDS011;14929;51.336;9.416;2022-08-19T05:22:14;3.03;;;2.83;;
27495;SDS011;14929;51.336;9.416;2022-08-19T05:25:02;4.10;;;3.15;;
27495;SDS011;14929;51.336;9.416;2022-08-19T05:27:33;3.35;;;3.05;;
27495;SDS011;14929;51.336;9.416;2022-08-19T05:30:00;3.42;;;2.80;;
27495;SDS011;14929;51.336;9.416;2022-08-19T05:32:28;4.75;;;3.45;;
27495;SDS011;14929;51.336;9.416;2022-08-19T05:34:57;4.10;;;3.38;;
27495;SDS011;14929;51.336;9.416;2022-08-19T05:37:25;4.78;;;4.10;;
27495;SDS011;14929;51.336;9.416;2022-08-19T05:39:53;3.47;;;3.17;;
27495;SDS011;14929;51.336;9.416;2022-08-19T05:42:21;3.33;;;3.03;;
27495;SDS011;14929;51.336;9.416;2022-08-19T05:44:49;4.78;;;3.15;;
27495;SDS011;14929;51.336;9.416;2022-08-19T05:47:17;3.67;;;3.38;;
27495;SDS011;14929;51.336;9.416;2022-08-19T05:49:46;4.10;;;3.80;;
27495;SDS011;14929;51.336;9.416;2022-08-19T05:52:17;4.28;;;3.63;;
27495;SDS011;14929;51.336;9.416;2022-08-19T05:54:46;3.95;;;3.55;;
27495;SDS011;14929;51.336;9.416;2022-08-19T05:57:16;3.42;;;3.17;;
27495;SDS011;14929;51.336;9.416;2022-08-19T05:59:43;3.90;;;3.60;;
27495;SDS011;14929;51.336;9.416;2022-08-19T06:02:16;3.45;;;3.15;;
27495;SDS011;14929;51.336;9.416;2022-08-19T06:04:44;3.13;;;2.92;;
27495;SDS011;14929;51.336;9.416;2022-08-19T06:07:11;3.80;;;3.25;;
27495;SDS011;14929;51.336;9.416;2022-08-19T06:09:41;4.38;;;3.97;;
27495;SDS011;14929;51.336;9.416;2022-08-19T06:12:09;3.22;;;3.03;;
27495;SDS011;14929;51.336;9.416;2022-08-19T06:14:37;4.15;;;3.75;;
27495;SDS011;14929;51.336;9.416;2022-08-19T06:17:05;4.38;;;3.65;;
27495;SDS011;14929;51.336;9.416;2022-08-19T06:19:33;3.92;;;3.60;;
27495;SDS011;14929;51.336;9.416;2022-08-19T06:22:01;4.22;;;3.30;;
27495;SDS011;14929;51.336;9.416;2022-08-19T06:24:31;3.45;;;3.15;;
27495;SDS011;14929;51.336;9.416;2022-08-19T06:27:01;3.90;;;3.60;;
27495;SDS011;14929;51.336;9.416;2022-08-19T06:29:30;5.55;;;3.47;;
27495;SDS011;14929;51.336;9.416;2022-08-19T06:31:59;6.53;;;4.35;;
27495;SDS011;14929;51.336;9.416;2022-08-19T06:34:29;4.70;;;4.30;;
27495;SDS011;14929;51.336;9.416;2022-08-19T06:36:59;3.40;;;3.10;;
27495;SDS011;14929;51.336;9.416;2022-08-19T06:39:29;3.75;;;3.42;;
27495;SDS011;14929;51.336;9.416;2022-08-19T06:41:59;4.80;;;3.35;;
27495;SDS011;14929;51.336;9.416;2022-08-19T06:44:32;4.05;;;3.55;;
27495;SDS011;14929;51.336;9.416;2022-08-19T06:47:01;3.40;;;3.05;;
27495;SDS011;14929;51.336;9.416;2022-08-19T06:49:31;5.05;;;3.50;;
27495;SDS011;14929;51.336;9.416;2022-08-19T06:51:59;3.80;;;3.38;;
27495;SDS011;14929;51.336;9.416;2022-08-19T06:54:28;4.00;;;3.60;;
27495;SDS011;14929;51.336;9.416;2022-08-19T06:56:55;3.78;;;2.88;;
27495;SDS011;14929;51.336;9.416;2022-08-19T06:59:26;4.25;;;3.22;;
27495;SDS011;14929;51.336;9.416;2022-08-19T07:01:57;3.72;;;3.33;;
27495;SDS011;14929;51.336;9.416;2022-08-19T07:04:28;3.47;;;3.17;;
27495;SDS011;14929;51.336;9.416;2022-08-19T07:06:58;2.97;;;2.78;;
27495;SDS011;14929;51.336;9.416;2022-08-19T07:09:27;4.57;;;3.75;;
27495;SDS011;14929;51.336;9.416;2022-08-19T07:11:55;3.90;;;3.58;;
27495;SDS011;14929;51.336;9.416;2022-08-19T07:14:24;4.50;;;3.88;;
27495;SDS011;14929;51.336;9.416;2022-08-19T07:16:55;3.78;;;3.47;;
27495;SDS011;14929;51.336;9.416;2022-08-19T07:19:24;2.70;;;2.50;;
27495;SDS011;14929;51.336;9.416;2022-08-19T07:21:53;3.85;;;3.55;;
27495;SDS011;14929;51.336;9.416;2022-08-19T07:24:22;3.53;;;3.22;;
27495;SDS011;14929;51.336;9.416;2022-08-19T07:26:53;3.92;;;3.63;;
27495;SDS011;14929;51.336;9.416;2022-08-19T07:29:27;4.28;;;3.88;;
27495;SDS011;14929;51.336;9.416;2022-08-19T07:31:58;4.97;;;4.57;;
27495;SDS011;14929;51.336;9.416;2022-08-19T07:34:27;4.55;;;4.15;;
27495;SDS011;14929;51.336;9.416;2022-08-19T07:36:56;3.90;;;3.60;;
27495;SDS011;14929;51.336;9.416;2022-08-19T07:39:25;4.88;;;4.38;;
27495;SDS011;14929;51.336;9.416;2022-08-19T07:41:57;7.25;;;4.82;;
27495;SDS011;14929;51.336;9.416;2022-08-19T07:44:27;5.15;;;4.45;;
27495;SDS011;14929;51.336;9.416;2022-08-19T07:46:55;4.05;;;3.75;;
27495;SDS011;14929;51.336;9.416;2022-08-19T07:49:25;4.72;;;4.32;;
27495;SDS011;14929;51.336;9.416;2022-08-19T07:51:54;4.75;;;4.35;;
27495;SDS011;14929;51.336;9.416;2022-08-19T07:54:24;5.63;;;4.30;;
27495;SDS011;14929;51.336;9.416;2022-08-19T07:56:53;4.30;;;3.97;;
27495;SDS011;14929;51.336;9.416;2022-08-19T07:59:22;4.63;;;4.22;;
27495;SDS011;14929;51.336;9.416;2022-08-19T08:01:51;4.22;;;3.92;;
27495;SDS011;14929;51.336;9.416;2022-08-19T08:04:19;4.70;;;4.38;;
27495;SDS011;14929;51.336;9.416;2022-08-19T08:07:04;6.13;;;5.57;;
27495;SDS011;14929;51.336;9.416;2022-08-19T08:09:51;3.85;;;3.30;;
27495;SDS011;14929;51.336;9.416;2022-08-19T08:12:20;5.90;;;4.38;;
27495;SDS011;14929;51.336;9.416;2022-08-19T08:14:54;4.47;;;4.18;;
27495;SDS011;14929;51.336;9.416;2022-08-19T08:17:28;5.13;;;4.78;;
27495;SDS011;14929;51.336;9.416;2022-08-19T08:19:57;4.38;;;3.47;;
27495;SDS011;14929;51.336;9.416;2022-08-19T08:22:24;5.90;;;4.22;;
27495;SDS011;14929;51.336;9.416;2022-08-19T08:25:12;4.05;;;3.75;;
27495;SDS011;14929;51.336;9.416;2022-08-19T08:27:43;4.47;;;4.18;;
27495;SDS011;14929;51.336;9.416;2022-08-19T08:30:12;12.07;;;4.88;;
27495;SDS011;14929;51.336;9.416;2022-08-19T08:32:44;3.78;;;3.50;;
27495;SDS011;14929;51.336;9.416;2022-08-19T08:35:14;4.18;;;3.60;;
27495;SDS011;14929;51.336;9.416;2022-08-19T08:37:44;4.50;;;4.20;;
27495;SDS011;14929;51.336;9.416;2022-08-19T08:40:16;3.90;;;3.60;;
27495;SDS011;14929;51.336;9.416;2022-08-19T08:42:50;4.15;;;3.85;;
27495;SDS011;14929;51.336;9.416;2022-08-19T08:45:23;4.75;;;4.32;;
27495;SDS011;14929;51.336;9.416;2022-08-19T08:47:53;3.70;;;3.40;;
27495;SDS011;14929;51.336;9.416;2022-08-19T08:50:25;5.15;;;4.65;;
27495;SDS011;14929;51.336;9.416;2022-08-19T08:53:00;3.55;;;3.25;;
27495;SDS011;14929;51.336;9.416;2022-08-19T08:55:30;3.95;;;3.65;;
27495;SDS011;14929;51.336;9.416;2022-08-19T08:57:59;4.45;;;4.13;;
27495;SDS011;14929;51.336;9.416;2022-08-19T09:00:31;4.70;;;3.80;;
27495;SDS011;14929;51.336;9.416;2022-08-19T09:03:02;4.38;;;4.05;;
27495;SDS011;14929;51.336;9.416;2022-08-19T09:05:34;4.00;;;3.70;;
27495;SDS011;14929;51.336;9.416;2022-08-19T09:08:08;4.43;;;3.28;;
27495;SDS011;14929;51.336;9.416;2022-08-19T09:10:43;3.13;;;2.92;;
27495;SDS011;14929;51.336;9.416;2022-08-19T09:13:15;2.90;;;2.70;;
27495;SDS011;14929;51.336;9.416;2022-08-19T09:15:53;2.88;;;2.67;;
27495;SDS011;14929;51.336;9.416;2022-08-19T09:18:27;3.30;;;3.00;;
27495;SDS011;14929;51.336;9.416;2022-08-19T09:21:07;5.30;;;3.10;;
27495;SDS011;14929;51.336;9.416;2022-08-19T09:23:35;3.10;;;2.90;;
27495;SDS011;14929;51.336;9.416;2022-08-19T09:26:06;3.55;;;3.35;;
27495;SDS011;14929;51.336;9.416;2022-08-19T09:28:38;3.50;;;3.30;;
27495;SDS011;14929;51.336;9.416;2022-08-19T09:31:08;3.25;;;2.97;;
27495;SDS011;14929;51.336;9.416;2022-08-19T09:33:37;3.78;;;3.47;;
27495;SDS011;14929;51.336;9.416;2022-08-19T09:36:10;4.22;;;3.28;;
27495;SDS011;14929;51.336;9.416;2022-08-19T09:38:39;3.92;;;3.63;;
27495;SDS011;14929;51.336;9.416;2022-08-19T09:41:08;4.90;;;3.85;;
27495;SDS011;14929;51.336;9.416;2022-08-19T09:43:39;3.45;;;3.15;;
27495;SDS011;14929;51.336;9.416;2022-08-19T09:46:08;2.97;;;2.78;;
27495;SDS011;14929;51.336;9.416;2022-08-19T09:48:37;3.13;;;2.92;;
27495;SDS011;14929;51.336;9.416;2022-08-19T09:51:07;3.42;;;3.22;;
27495;SDS011;14929;51.336;9.416;2022-08-19T09:53:37;3.92;;;3.17;;
27495;SDS011;14929;51.336;9.416;2022-08-19T09:56:05;3.88;;;3.10;;
27495;SDS011;14929;51.336;9.416;2022-08-19T09:58:33;2.90;;;2.70;;
27495;SDS011;14929;51.336;9.416;2022-08-19T10:01:01;3.25;;;3.05;;
27495;SDS011;14929;51.336;9.416;2022-08-19T10:03:30;3.15;;;2.88;;
27495;SDS011;14929;51.336;9.416;2022-08-19T10:06:03;2.78;;;2.58;;
27495;SDS011;14929;51.336;9.416;2022-08-19T10:08:32;2.50;;;2.30;;
27495;SDS011;14929;51.336;9.416;2022-08-19T10:11:03;3.72;;;2.70;;
27495;SDS011;14929;51.336;9.416;2022-08-19T10:13:31;2.58;;;2.42;;
27495;SDS011;14929;51.336;9.416;2022-08-19T10:16:02;2.75;;;2.55;;
27495;SDS011;14929;51.336;9.416;2022-08-19T10:18:32;3.25;;;2.85;;
27495;SDS011;14929;51.336;9.416;2022-08-19T10:21:06;3.75;;;3.13;;
27495;SDS011;14929;51.336;9.416;2022-08-19T10:23:36;3.33;;;2.90;;
27495;SDS011;14929;51.336;9.416;2022-08-19T10:26:05;2.35;;;2.25;;
27495;SDS011;14929;51.336;9.416;2022-08-19T10:28:33;2.63;;;2.42;;
27495;SDS011;14929;51.336;9.416;2022-08-19T10:31:05;2.92;;;2.72;;
27495;SDS011;14929;51.336;9.416;2022-08-19T10:33:35;3.50;;;2.80;;
27495;SDS011;14929;51.336;9.416;2022-08-19T10:36:04;2.33;;;2.13;;
27495;SDS011;14929;51.336;9.416;2022-08-19T10:38:36;4.20;;;2.40;;
27495;SDS011;14929;51.336;9.416;2022-08-19T10:41:07;2.53;;;2.15;;
27495;SDS011;14929;51.336;9.416;2022-08-19T10:43:36;2.50;;;2.40;;
27495;SDS011;14929;51.336;9.416;2022-08-19T10:46:04;3.22;;;3.03;;
27495;SDS011;14929;51.336;9.416;2022-08-19T10:48:33;2.72;;;2.53;;
27495;SDS011;14929;51.336;9.416;2022-08-19T10:51:01;2.10;;;2.00;;
27495;SDS011;14929;51.336;9.416;2022-08-19T10:53:48;3.05;;;2.70;;
27495;SDS011;14929;51.336;9.416;2022-08-19T10:56:16;2.92;;;2.72;;
27495;SDS011;14929;51.336;9.416;2022-08-19T10:59:02;2.88;;;2.63;;
27495;SDS011;14929;51.336;9.416;2022-08-19T11:01:30;2.22;;;2.10;;
27495;SDS011;14929;51.336;9.416;2022-08-19T11:03:59;2.17;;;2.08;;
27495;SDS011;14929;51.336;9.416;2022-08-19T11:06:27;2.70;;;2.50;;
27495;SDS011;14929;51.336;9.416;2022-08-19T11:08:56;2.95;;;2.65;;
27495;SDS011;14929;51.336;9.416;2022-08-19T11:11:25;2.60;;;2.40;;
27495;SDS011;14929;51.336;9.416;2022-08-19T11:13:53;3.45;;;2.58;;
27495;SDS011;14929;51.336;9.416;2022-08-19T11:16:22;3.85;;;3.03;;
27495;SDS011;14929;51.336;9.416;2022-08-19T11:18:56;2.83;;;2.63;;
27495;SDS011;14929;51.336;9.416;2022-08-19T11:21:27;2.38;;;2.05;;
27495;SDS011;14929;51.336;9.416;2022-08-19T11:24:00;2.20;;;2.10;;
27495;SDS011;14929;51.336;9.416;2022-08-19T11:26:31;2.88;;;2.20;;
27495;SDS011;14929;51.336;9.416;2022-08-19T11:28:59;9.88;;;3.03;;
27495;SDS011;14929;51.336;9.416;2022-08-19T11:31:28;3.35;;;2.38;;
27495;SDS011;14929;51.336;9.416;2022-08-19T11:34:00;3.08;;;2.88;;
27495;SDS011;14929;51.336;9.416;2022-08-19T11:36:30;3.35;;;3.05;;
27495;SDS011;14929;51.336;9.416;2022-08-19T11:39:00;5.07;;;3.30;;
27495;SDS011;14929;51.336;9.416;2022-08-19T11:41:31;2.40;;;2.20;;
27495;SDS011;14929;51.336;9.416;2022-08-19T11:43:58;2.50;;;2.30;;
27495;SDS011;14929;51.336;9.416;2022-08-19T11:46:28;3.30;;;3.00;;
27495;SDS011;14929;51.336;9.416;2022-08-19T11:48:56;2.30;;;2.00;;
27495;SDS011;14929;51.336;9.416;2022-08-19T11:51:24;4.32;;;2.80;;
27495;SDS011;14929;51.336;9.416;2022-08-19T11:53:53;1.98;;;1.88;;
27495;SDS011;14929;51.336;9.416;2022-08-19T11:56:24;2.50;;;2.40;;
27495;SDS011;14929;51.336;9.416;2022-08-19T11:58:53;2.38;;;2.28;;
27495;SDS011;14929;51.336;9.416;2022-08-19T12:01:21;2.35;;;2.15;;
27495;SDS011;14929;51.336;9.416;2022-08-19T12:03:52;2.53;;;2.35;;
27495;SDS011;14929;51.336;9.416;2022-08-19T12:06:21;2.92;;;2.72;;
27495;SDS011;14929;51.336;9.416;2022-08-19T12:08:54;2.00;;;1.90;;
27495;SDS011;14929;51.336;9.416;2022-08-19T12:11:23;2.42;;;2.30;;
27495;SDS011;14929;51.336;9.416;2022-08-19T12:13:52;2.22;;;2.13;;
27495;SDS011;14929;51.336;9.416;2022-08-19T12:16:21;2.55;;;2.35;;
27495;SDS011;14929;51.336;9.416;2022-08-19T12:18:50;2.60;;;2.33;;
27495;SDS011;14929;51.336;9.416;2022-08-19T12:21:19;2.72;;;2.53;;
27495;SDS011;14929;51.336;9.416;2022-08-19T12:23:53;2.50;;;2.30;;
27495;SDS011;14929;51.336;9.416;2022-08-19T12:26:24;3.03;;;2.78;;
27495;SDS011;14929;51.336;9.416;2022-08-19T12:28:52;2.53;;;2.35;;
27495;SDS011;14929;51.336;9.416;2022-08-19T12:31:20;2.85;;;2.65;;
27495;SDS011;14929;51.336;9.416;2022-08-19T12:33:48;3.70;;;2.40;;
27495;SDS011;14929;51.336;9.416;2022-08-19T12:36:17;2.28;;;2.17;;
27495;SDS011;14929;51.336;9.416;2022-08-19T12:38:45;2.75;;;2.50;;
27495;SDS011;14929;51.336;9.416;2022-08-19T12:41:14;2.10;;;2.00;;
27495;SDS011;14929;51.336;9.416;2022-08-19T12:43:44;2.38;;;2.28;;
27495;SDS011;14929;51.336;9.416;2022-08-19T12:46:13;2.67;;;2.47;;
27495;SDS011;14929;51.336;9.416;2022-08-19T12:48:40;2.72;;;2.53;;
27495;SDS011;14929;51.336;9.416;2022-08-19T12:51:11;2.67;;;2.47;;
27495;SDS011;14929;51.336;9.416;2022-08-19T12:53:41;2.65;;;2.45;;
27495;SDS011;14929;51.336;9.416;2022-08-19T12:56:10;2.15;;;2.05;;
27495;SDS011;14929;51.336;9.416;2022-08-19T12:58:39;2.20;;;2.10;;
27495;SDS011;14929;51.336;9.416;2022-08-19T13:01:09;2.10;;;2.00;;
27495;SDS011;14929;51.336;9.416;2022-08-19T13:03:41;2.22;;;2.10;;
27495;SDS011;14929;51.336;9.416;2022-08-19T13:06:10;3.15;;;2.95;;
27495;SDS011;14929;51.336;9.416;2022-08-19T13:08:38;2.17;;;2.00;;
27495;SDS011;14929;51.336;9.416;2022-08-19T13:11:07;1.98;;;1.88;;
27495;SDS011;14929;51.336;9.416;2022-08-19T13:13:37;2.10;;;2.00;;
27495;SDS011;14929;51.336;9.416;2022-08-19T13:16:07;1.70;;;1.60;;
27495;SDS011;14929;51.336;9.416;2022-08-19T13:18:37;1.77;;;1.67;;
27495;SDS011;14929;51.336;9.416;2022-08-19T13:21:07;2.10;;;2.00;;
27495;SDS011;14929;51.336;9.416;2022-08-19T13:23:36;1.92;;;1.80;;
27495;SDS011;14929;51.336;9.416;2022-08-19T13:26:05;2.28;;;2.17;;
27495;SDS011;14929;51.336;9.416;2022-08-19T13:28:34;2.00;;;1.90;;
27495;SDS011;14929;51.336;9.416;2022-08-19T13:31:21;2.45;;;2.30;;
27495;SDS011;14929;51.336;9.416;2022-08-19T13:34:08;1.90;;;1.80;;
27495;SDS011;14929;51.336;9.416;2022-08-19T13:36:36;2.15;;;1.95;;
27495;SDS011;14929;51.336;9.416;2022-08-19T13:39:05;2.53;;;2.10;;
27495;SDS011;14929;51.336;9.416;2022-08-19T13:41:34;1.88;;;1.77;;
27495;SDS011;14929;51.336;9.416;2022-08-19T13:44:02;2.80;;;2.60;;
27495;SDS011;14929;51.336;9.416;2022-08-19T13:46:32;3.90;;;2.58;;
27495;SDS011;14929;51.336;9.416;2022-08-19T13:49:00;2.00;;;1.90;;
27495;SDS011;14929;51.336;9.416;2022-08-19T13:51:27;3.40;;;2.67;;
27495;SDS011;14929;51.336;9.416;2022-08-19T13:53:55;2.30;;;2.20;;
27495;SDS011;14929;51.336;9.416;2022-08-19T13:56:22;18.48;;;2.40;;
27495;SDS011;14929;51.336;9.416;2022-08-19T13:58:50;2.50;;;2.35;;
27495;SDS011;14929;51.336;9.416;2022-08-19T14:01:18;2.53;;;2.30;;
27495;SDS011;14929;51.336;9.416;2022-08-19T14:03:49;2.55;;;2.35;;
27495;SDS011;14929;51.336;9.416;2022-08-19T14:06:16;2.35;;;2.15;;
27495;SDS011;14929;51.336;9.416;2022-08-19T14:08:44;1.65;;;1.55;;
27495;SDS011;14929;51.336;9.416;2022-08-19T14:11:12;1.80;;;1.70;;
27495;SDS011;14929;51.336;9.416;2022-08-19T14:13:40;1.98;;;1.77;;
27495;SDS011;14929;51.336;9.416;2022-08-19T14:16:09;1.95;;;1.85;;
27495;SDS011;14929;51.336;9.416;2022-08-19T14:18:38;2.15;;;1.95;;
27495;SDS011;14929;51.336;9.416;2022-08-19T14:21:08;1.65;;;1.55;;
27495;SDS011;14929;51.336;9.416;2022-08-19T14:23:42;2.00;;;1.90;;
27495;SDS011;14929;51.336;9.416;2022-08-19T14:26:11;1.70;;;1.60;;
27495;SDS011;14929;51.336;9.416;2022-08-19T14:28:42;2.08;;;1.98;;
27495;SDS011;14929;51.336;9.416;2022-08-19T14:31:10;2.30;;;1.60;;
27495;SDS011;14929;51.336;9.416;2022-08-19T14:33:41;1.98;;;1.88;;
27495;SDS011;14929;51.336;9.416;2022-08-19T14:36:10;2.28;;;2.17;;
27495;SDS011;14929;51.336;9.416;2022-08-19T14:38:38;1.85;;;1.75;;
27495;SDS011;14929;51.336;9.416;2022-08-19T14:41:10;2.47;;;2.28;;
27495;SDS011;14929;51.336;9.416;2022-08-19T14:43:42;2.30;;;2.10;;
27495;SDS011;14929;51.336;9.416;2022-08-19T14:46:11;2.15;;;2.05;;
27495;SDS011;14929;51.336;9.416;2022-08-19T14:48:40;2.05;;;1.95;;
27495;SDS011;14929;51.336;9.416;2022-08-19T14:51:08;2.08;;;1.98;;
27495;SDS011;14929;51.336;9.416;2022-08-19T14:53:37;2.20;;;2.00;;
27495;SDS011;14929;51.336;9.416;2022-08-19T14:56:08;2.10;;;2.00;;
27495;SDS011;14929;51.336;9.416;2022-08-19T14:58:37;1.92;;;1.83;;
27495;SDS011;14929;51.336;9.416;2022-08-19T15:01:06;2.17;;;2.08;;
27495;SDS011;14929;51.336;9.416;2022-08-19T15:03:34;1.80;;;1.70;;